createdAt,value
2023-03-25T00:00:19.188Z,87.62
2023-03-25T00:02:50.779Z,87.70
2023-03-25T00:05:20.317Z,87.66
2023-03-25T00:07:51.948Z,87.27
2023-03-25T00:10:19.171Z,88.42
2023-03-25T00:12:45.624Z,88.68
2023-03-25T00:15:13.740Z,88.46
2023-03-25T00:17:40.746Z,89.50
2023-03-25T00:20:14.210Z,88.73
2023-03-25T00:22:44.074Z,89.34
2023-03-25T00:25:17.257Z,89.46
2023-03-25T00:27:46.460Z,90.02
2023-03-25T00:30:17.134Z,89.62
2023-03-25T00:32:50.568Z,89.89
2023-03-25T00:35:19.820Z,89.89
2023-03-25T00:37:48.376Z,90.79
2023-03-25T00:40:14.911Z,91.03
2023-03-25T00:42:44.925Z,90.77
2023-03-25T00:45:12.548Z,91.18
2023-03-25T00:47:39.248Z,91.95
2023-03-25T00:50:06.421Z,91.65
2023-03-25T00:52:33.074Z,91.85
2023-03-25T00:54:59.597Z,92.03
2023-03-25T00:57:26.170Z,91.90
2023-03-25T00:59:52.706Z,92.15
2023-03-25T01:02:21.747Z,92.33
2023-03-25T01:04:49.822Z,90.52
2023-03-25T01:07:22.214Z,90.72
2023-03-25T01:09:48.949Z,90.99
2023-03-25T01:12:17.114Z,91.02
2023-03-25T01:14:43.637Z,91.93
2023-03-25T01:17:11.120Z,91.75
2023-03-25T01:19:40.824Z,91.83
2023-03-25T01:22:07.351Z,91.71
2023-03-25T01:24:33.833Z,91.54
2023-03-25T01:27:00.607Z,91.97
2023-03-25T01:29:27.119Z,91.85
2023-03-25T01:31:53.980Z,91.05
2023-03-25T01:34:22.662Z,90.31
2023-03-25T01:36:52.318Z,90.41
2023-03-25T01:39:19.269Z,90.63
2023-03-25T01:41:51.069Z,90.88
2023-03-25T01:44:21.975Z,90.49
2023-03-25T01:46:53.370Z,90.33
2023-03-25T01:49:24.968Z,91.45
2023-03-25T01:51:58.677Z,90.73
2023-03-25T01:54:27.366Z,90.46
2023-03-25T01:56:55.056Z,90.01
2023-03-25T01:59:25.997Z,90.39
2023-03-25T02:01:53.779Z,90.35
2023-03-25T02:04:31.652Z,90.42
2023-03-25T02:06:58.736Z,89.84
2023-03-25T02:09:26.527Z,89.89
2023-03-25T02:11:54.889Z,89.79
2023-03-25T02:14:26.607Z,89.93
2023-03-25T02:17:03.750Z,90.81
2023-03-25T02:19:47.062Z,89.34
2023-03-25T02:22:43.117Z,89.26
2023-03-25T02:25:35.527Z,89.34
2023-03-25T02:28:05.989Z,89.35
2023-03-25T02:30:45.370Z,89.15
2023-03-25T02:33:42.842Z,88.67
2023-03-25T02:36:39.853Z,88.81
2023-03-25T02:39:36.058Z,88.75
2023-03-25T02:42:23.523Z,89.54
2023-03-25T02:44:58.606Z,89.48
2023-03-25T02:47:30.398Z,90.42
2023-03-25T02:50:01.148Z,88.65
2023-03-25T02:52:34.094Z,88.49
2023-03-25T02:55:06.308Z,88.97
2023-03-25T02:57:35.473Z,88.84
2023-03-25T03:00:10.161Z,88.76
2023-03-25T03:02:37.754Z,89.12
2023-03-25T03:05:22.445Z,88.88
2023-03-25T03:07:56.709Z,88.74
2023-03-25T03:10:32.285Z,88.51
2023-03-25T03:13:30.382Z,88.50
2023-03-25T03:16:17.828Z,88.68
2023-03-25T03:19:11.832Z,89.08
2023-03-25T03:21:51.527Z,88.77
2023-03-25T03:24:22.634Z,88.62
2023-03-25T03:26:57.642Z,88.77
2023-03-25T03:29:46.577Z,88.65
2023-03-25T03:32:41.661Z,87.85
2023-03-25T03:35:22.736Z,87.96
2023-03-25T03:37:59.426Z,87.82
2023-03-25T03:40:28.142Z,87.66
2023-03-25T03:43:02.249Z,87.40
2023-03-25T03:45:28.620Z,86.29
2023-03-25T03:47:59.370Z,87.15
2023-03-25T03:50:38.666Z,87.63
2023-03-25T03:53:29.543Z,88.35
2023-03-25T03:56:03.660Z,88.61
2023-03-25T03:58:35.806Z,88.63
2023-03-25T04:01:14.094Z,89.41
2023-03-25T04:04:07.615Z,89.86
2023-03-25T04:06:42.888Z,90.06
2023-03-25T04:09:27.552Z,90.67
2023-03-25T04:12:00.897Z,91.07
2023-03-25T04:14:27.551Z,90.50
2023-03-25T04:16:57.472Z,89.88
2023-03-25T04:19:25.767Z,89.77
2023-03-25T04:21:52.378Z,90.87
2023-03-25T04:24:19.853Z,90.16
2023-03-25T04:26:47.637Z,90.85
2023-03-25T04:29:14.189Z,91.35
2023-03-25T04:31:46.734Z,90.49
2023-03-25T04:34:14.910Z,90.57
2023-03-25T04:36:43.148Z,91.15
2023-03-25T04:39:12.774Z,90.80
2023-03-25T04:41:41.215Z,91.35
2023-03-25T04:44:07.921Z,91.43
2023-03-25T04:46:36.496Z,91.66
2023-03-25T04:49:06.650Z,91.05
2023-03-25T04:51:33.191Z,91.39
2023-03-25T04:54:02.164Z,92.35
2023-03-25T04:56:28.938Z,92.02
2023-03-25T04:58:55.424Z,92.78
2023-03-25T05:01:31.065Z,92.47
2023-03-25T05:04:05.536Z,92.37
2023-03-25T05:06:40.065Z,92.21
2023-03-25T05:09:08.581Z,92.75
2023-03-25T05:11:43.262Z,92.24
2023-03-25T05:14:11.569Z,92.69
2023-03-25T05:16:38.377Z,91.94
2023-03-25T05:19:06.581Z,92.30
2023-03-25T05:21:36.048Z,93.08
2023-03-25T05:24:08.320Z,93.92
2023-03-25T05:26:35.204Z,96.42
2023-03-25T05:29:05.817Z,97.28
2023-03-25T05:31:32.319Z,100.00
2023-03-25T05:33:58.766Z,100.00
2023-03-25T05:36:30.137Z,100.00
2023-03-25T05:38:56.827Z,100.00
2023-03-25T05:41:33.326Z,100.00
2023-03-25T05:44:00.843Z,100.00
2023-03-25T05:46:33.328Z,100.00
2023-03-25T05:49:03.058Z,100.00
2023-03-25T05:51:33.970Z,100.00
2023-03-25T05:54:02.647Z,100.00
2023-03-25T05:56:29.681Z,100.00
2023-03-25T05:58:57.467Z,100.00
2023-03-25T06:01:32.580Z,100.00
2023-03-25T06:04:02.116Z,100.00
2023-03-25T06:06:34.429Z,100.00
2023-03-25T06:09:02.323Z,100.00
2023-03-25T06:11:29.517Z,100.00
2023-03-25T06:13:56.150Z,100.00
2023-03-25T06:16:30.283Z,100.00
2023-03-25T06:18:59.770Z,100.00
2023-03-25T06:21:28.593Z,100.00
2023-03-25T06:23:56.470Z,100.00
2023-03-25T06:26:23.589Z,100.00
2023-03-25T06:29:01.841Z,100.00
2023-03-25T06:31:28.447Z,100.00
2023-03-25T06:33:56.646Z,100.00
2023-03-25T06:36:25.398Z,100.00
2023-03-25T06:38:52.513Z,100.00
2023-03-25T06:41:25.770Z,100.00
2023-03-25T06:43:52.361Z,100.00
2023-03-25T06:46:18.787Z,100.00
2023-03-25T06:48:45.334Z,100.00
2023-03-25T06:51:14.612Z,100.00
2023-03-25T06:53:41.142Z,100.00
2023-03-25T06:56:07.902Z,100.00
2023-03-25T06:58:37.247Z,100.00
2023-03-25T07:01:07.500Z,100.00
2023-03-25T07:03:36.421Z,100.00
2023-03-25T07:06:03.925Z,100.00
2023-03-25T07:08:30.506Z,100.00
2023-03-25T07:11:07.671Z,100.00
2023-03-25T07:13:35.910Z,100.00
2023-03-25T07:16:05.239Z,100.00
2023-03-25T07:18:32.223Z,100.00
2023-03-25T07:21:00.015Z,100.00
2023-03-25T07:23:26.542Z,100.00
2023-03-25T07:25:53.542Z,100.00
2023-03-25T07:28:24.179Z,100.00
2023-03-25T07:30:50.732Z,100.00
2023-03-25T07:33:17.195Z,100.00
2023-03-25T07:35:43.839Z,100.00
2023-03-25T07:38:10.327Z,100.00
2023-03-25T07:40:36.877Z,100.00
2023-03-25T07:43:05.572Z,100.00
2023-03-25T07:45:32.108Z,100.00
2023-03-25T07:48:14.540Z,100.00
2023-03-25T07:50:45.382Z,97.48
2023-03-25T07:53:11.833Z,94.61
2023-03-25T07:55:38.347Z,92.94
2023-03-25T07:58:04.780Z,91.32
2023-03-25T08:00:31.297Z,87.99
2023-03-25T08:02:57.894Z,90.36
2023-03-25T08:05:24.834Z,89.47
2023-03-25T08:07:53.766Z,89.70
2023-03-25T08:10:21.026Z,89.20
2023-03-25T08:12:47.537Z,88.64
2023-03-25T08:15:13.991Z,90.07
2023-03-25T08:17:40.644Z,88.94
2023-03-25T08:20:07.708Z,90.32
2023-03-25T08:22:34.450Z,86.82
2023-03-25T08:25:00.891Z,87.67
2023-03-25T08:27:27.491Z,87.61
2023-03-25T08:29:59.257Z,83.80
2023-03-25T08:32:27.985Z,80.63
2023-03-25T08:34:54.775Z,80.99
2023-03-25T08:37:22.303Z,80.63
2023-03-25T08:39:50.357Z,78.18
2023-03-25T08:42:17.488Z,78.51
2023-03-25T08:44:43.946Z,77.60
2023-03-25T08:47:12.300Z,77.89
2023-03-25T08:49:43.277Z,76.76
2023-03-25T08:52:10.336Z,78.59
2023-03-25T08:54:36.894Z,77.47
2023-03-25T08:57:03.485Z,76.69
2023-03-25T08:59:30.076Z,76.41
2023-03-25T09:01:57.740Z,75.03
2023-03-25T09:04:25.839Z,76.78
2023-03-25T09:07:10.795Z,77.04
2023-03-25T09:09:39.298Z,77.60
2023-03-25T09:12:06.516Z,76.64
2023-03-25T09:14:33.112Z,76.21
2023-03-25T09:17:04.102Z,76.56
2023-03-25T09:19:30.807Z,76.85
2023-03-25T09:21:57.221Z,78.08
2023-03-25T09:24:23.758Z,79.32
2023-03-25T09:26:50.451Z,80.37
2023-03-25T09:29:16.936Z,80.16
2023-03-25T09:31:45.709Z,79.96
2023-03-25T09:34:12.568Z,83.66
2023-03-25T09:36:39.825Z,82.22
2023-03-25T09:39:07.083Z,79.78
2023-03-25T09:41:39.594Z,77.88
2023-03-25T09:44:18.404Z,77.80
2023-03-25T09:46:45.297Z,75.34
2023-03-25T09:49:20.325Z,77.70
2023-03-25T09:51:50.899Z,76.59
2023-03-25T09:54:28.157Z,75.84
2023-03-25T09:57:02.614Z,75.71
2023-03-25T09:59:44.696Z,76.70
2023-03-25T10:02:41.288Z,78.54
2023-03-25T10:05:32.844Z,78.72
2023-03-25T10:08:16.887Z,77.94
2023-03-25T10:10:51.846Z,77.43
2023-03-25T10:13:35.079Z,76.17
2023-03-25T10:16:46.691Z,75.35
2023-03-25T10:19:39.149Z,74.23
2023-03-25T10:22:17.047Z,74.33
2023-03-25T10:25:01.394Z,72.97
2023-03-25T10:27:46.017Z,72.43
2023-03-25T10:30:20.511Z,69.94
2023-03-25T10:32:51.896Z,69.15
2023-03-25T10:35:20.358Z,71.65
2023-03-25T10:37:49.331Z,72.53
2023-03-25T10:40:25.425Z,73.25
2023-03-25T10:43:13.323Z,72.86
2023-03-25T10:45:42.616Z,73.65
2023-03-25T10:48:28.611Z,74.16
2023-03-25T10:51:21.108Z,74.52
2023-03-25T10:53:52.958Z,75.01
2023-03-25T10:56:23.924Z,74.14
2023-03-25T10:58:53.617Z,73.21
2023-03-25T11:01:28.380Z,72.82
2023-03-25T11:03:56.054Z,72.78
2023-03-25T11:06:29.630Z,71.84
2023-03-25T11:09:15.933Z,70.19
2023-03-25T11:11:43.332Z,71.45
2023-03-25T11:14:11.952Z,69.60
2023-03-25T11:16:56.015Z,68.88
2023-03-25T11:19:36.757Z,67.70
2023-03-25T11:22:11.024Z,68.78
2023-03-25T11:24:43.681Z,66.54
2023-03-25T11:27:16.911Z,65.54
2023-03-25T11:29:52.208Z,66.62
2023-03-25T11:32:24.217Z,68.60
2023-03-25T11:34:53.231Z,70.14
2023-03-25T11:37:22.494Z,70.63
2023-03-25T11:39:55.569Z,72.14
2023-03-25T11:42:35.974Z,72.70
2023-03-25T11:45:03.692Z,72.39
2023-03-25T11:47:38.260Z,71.50
2023-03-25T11:50:06.966Z,76.84
2023-03-25T11:52:44.769Z,84.70
2023-03-25T11:55:25.687Z,97.00
2023-03-25T11:57:56.385Z,100.00
2023-03-25T12:00:29.357Z,100.00
2023-03-25T12:03:12.154Z,100.00
2023-03-25T12:05:41.537Z,100.00
2023-03-25T12:08:18.638Z,100.00
2023-03-25T12:11:05.639Z,100.00
2023-03-25T12:14:19.266Z,100.00
2023-03-25T12:17:09.114Z,100.00
2023-03-25T12:20:02.296Z,100.00
2023-03-25T12:22:48.032Z,100.00
2023-03-25T12:25:40.933Z,100.00
2023-03-25T12:28:39.314Z,100.00
2023-03-25T12:31:32.179Z,100.00
2023-03-25T12:34:20.933Z,100.00
2023-03-25T12:37:24.913Z,100.00
2023-03-25T12:40:24.214Z,100.00
2023-03-25T12:43:05.675Z,100.00
2023-03-25T12:46:10.022Z,100.00
2023-03-25T12:48:56.734Z,100.00
2023-03-25T12:51:38.316Z,100.00
2023-03-25T12:54:19.982Z,100.00
2023-03-25T12:57:06.052Z,99.06
2023-03-25T13:00:08.037Z,98.87
2023-03-25T13:02:45.010Z,98.75
2023-03-25T13:05:19.811Z,97.31
2023-03-25T13:07:55.822Z,95.82
2023-03-25T13:10:28.588Z,96.28
2023-03-25T13:13:01.480Z,95.58
2023-03-25T13:15:36.750Z,92.67
2023-03-25T13:18:20.041Z,92.66
2023-03-25T13:21:04.892Z,92.70
2023-03-25T13:23:38.009Z,91.36
2023-03-25T13:26:19.584Z,91.08
2023-03-25T13:28:51.167Z,89.65
2023-03-25T13:31:21.567Z,89.72
2023-03-25T13:33:59.020Z,88.14
2023-03-25T13:36:31.021Z,88.30
2023-03-25T13:39:01.531Z,87.12
2023-03-25T13:42:01.200Z,87.81
2023-03-25T13:44:36.063Z,87.41
2023-03-25T13:47:22.834Z,86.44
2023-03-25T13:49:56.059Z,85.44
2023-03-25T13:52:26.110Z,82.29
2023-03-25T13:55:09.465Z,81.73
2023-03-25T13:57:54.602Z,82.01
2023-03-25T14:00:54.767Z,81.10
2023-03-25T14:03:55.781Z,83.55
2023-03-25T14:06:35.150Z,82.77
2023-03-25T14:09:23.801Z,83.71
2023-03-25T14:12:16.347Z,84.89
2023-03-25T14:14:58.863Z,84.96
2023-03-25T14:17:30.919Z,83.45
2023-03-25T14:20:00.063Z,81.66
2023-03-25T14:22:41.300Z,81.29
2023-03-25T14:25:32.217Z,79.55
2023-03-25T14:28:05.803Z,80.63
2023-03-25T14:30:33.662Z,80.38
2023-03-25T14:33:03.954Z,78.41
2023-03-25T14:35:33.756Z,79.25
2023-03-25T14:38:09.812Z,80.41
2023-03-25T14:40:47.942Z,80.55
2023-03-25T14:43:46.140Z,81.23
2023-03-25T14:46:21.624Z,81.52
2023-03-25T14:49:05.817Z,79.79
2023-03-25T14:51:40.724Z,79.14
2023-03-25T14:54:27.651Z,79.68
2023-03-25T14:57:14.823Z,79.02
2023-03-25T14:59:45.458Z,79.66
2023-03-25T15:02:21.839Z,79.36
2023-03-25T15:05:27.424Z,78.91
2023-03-25T15:08:09.340Z,79.52
2023-03-25T15:10:42.330Z,79.20
2023-03-25T15:13:52.769Z,78.00
2023-03-25T15:16:27.087Z,77.57
2023-03-25T15:18:53.500Z,77.81
2023-03-25T15:21:24.598Z,77.62
2023-03-25T15:24:04.064Z,77.62
2023-03-25T15:26:40.250Z,79.37
2023-03-25T15:29:25.950Z,78.51
2023-03-25T15:32:08.448Z,78.11
2023-03-25T15:35:05.414Z,77.31
2023-03-25T15:37:56.726Z,77.17
2023-03-25T15:40:33.772Z,76.19
2023-03-25T15:43:22.948Z,75.88
2023-03-25T15:46:34.665Z,76.86
2023-03-25T15:49:07.080Z,76.03
2023-03-25T15:51:48.092Z,76.43
2023-03-25T15:54:53.460Z,76.79
2023-03-25T15:57:25.972Z,76.96
2023-03-25T16:00:14.341Z,76.79
2023-03-25T16:02:55.012Z,77.03
2023-03-25T16:05:22.088Z,76.60
2023-03-25T16:07:49.543Z,76.32
2023-03-25T16:10:18.918Z,78.25
2023-03-25T16:12:58.859Z,84.52
2023-03-25T16:15:31.669Z,96.44
2023-03-25T16:17:59.984Z,100.00
2023-03-25T16:20:32.023Z,100.00
2023-03-25T16:22:59.982Z,100.00
2023-03-25T16:25:41.114Z,100.00
2023-03-25T16:28:19.421Z,96.73
2023-03-25T16:30:53.141Z,93.86
2023-03-25T16:33:27.094Z,92.39
2023-03-25T16:35:59.974Z,91.57
2023-03-25T16:38:27.485Z,91.98
2023-03-25T16:41:04.030Z,91.47
2023-03-25T16:43:31.547Z,90.74
2023-03-25T16:46:02.097Z,90.49
2023-03-25T16:48:37.927Z,89.36
2023-03-25T16:51:22.682Z,91.32
2023-03-25T16:53:51.997Z,90.71
2023-03-25T16:56:18.432Z,90.38
2023-03-25T16:59:06.252Z,89.83
2023-03-25T17:01:45.372Z,90.33
2023-03-25T17:04:17.848Z,89.63
2023-03-25T17:06:52.614Z,90.13
2023-03-25T17:09:34.493Z,90.61
2023-03-25T17:12:06.584Z,91.22
2023-03-25T17:14:39.243Z,90.36
2023-03-25T17:17:24.215Z,91.42
2023-03-25T17:19:52.650Z,89.13
2023-03-25T17:22:33.882Z,88.55
2023-03-25T17:25:16.206Z,88.13
2023-03-25T17:27:43.569Z,89.08
2023-03-25T17:30:18.575Z,87.78
2023-03-25T17:32:45.376Z,86.60
2023-03-25T17:35:39.108Z,87.41
2023-03-25T17:38:06.079Z,87.93
2023-03-25T17:40:35.595Z,89.63
2023-03-25T17:43:02.560Z,94.68
2023-03-25T17:45:29.509Z,100.00
2023-03-25T17:47:56.604Z,100.00
2023-03-25T17:50:25.900Z,100.00
2023-03-25T17:52:52.468Z,100.00
2023-03-25T17:55:20.195Z,100.00
2023-03-25T17:57:46.772Z,100.00
2023-03-25T18:00:18.502Z,100.00
2023-03-25T18:02:46.158Z,100.00
2023-03-25T18:05:12.850Z,100.00
2023-03-25T18:07:39.562Z,100.00
2023-03-25T18:10:21.319Z,100.00
2023-03-25T18:12:47.725Z,100.00
2023-03-25T18:15:14.203Z,100.00
2023-03-25T18:17:40.714Z,100.00
2023-03-25T18:20:31.961Z,100.00
2023-03-25T18:23:01.403Z,100.00
2023-03-25T18:25:28.771Z,100.00
2023-03-25T18:27:57.132Z,100.00
2023-03-25T18:30:31.769Z,100.00
2023-03-25T18:32:58.263Z,100.00
2023-03-25T18:35:24.738Z,100.00
2023-03-25T18:37:51.395Z,100.00
2023-03-25T18:40:24.480Z,100.00
2023-03-25T18:42:51.684Z,100.00
2023-03-25T18:45:19.805Z,100.00
2023-03-25T18:47:46.894Z,100.00
2023-03-25T18:50:26.941Z,100.00
2023-03-25T18:52:53.463Z,100.00
2023-03-25T18:55:19.868Z,100.00
2023-03-25T18:57:46.881Z,100.00
2023-03-25T19:00:23.958Z,100.00
2023-03-25T19:02:52.360Z,100.00
2023-03-25T19:05:20.471Z,100.00
2023-03-25T19:07:49.952Z,100.00
2023-03-25T19:10:24.929Z,100.00
2023-03-25T19:12:58.906Z,100.00
2023-03-25T19:15:27.768Z,100.00
2023-03-25T19:17:56.324Z,100.00
2023-03-25T19:20:25.713Z,100.00
2023-03-25T19:22:52.232Z,100.00
2023-03-25T19:25:19.286Z,100.00
2023-03-25T19:27:46.875Z,100.00
2023-03-25T19:30:22.238Z,100.00
2023-03-25T19:32:51.554Z,100.00
2023-03-25T19:35:19.377Z,100.00
2023-03-25T19:37:52.343Z,100.00
2023-03-25T19:40:23.644Z,100.00
2023-03-25T19:42:53.734Z,100.00
2023-03-25T19:45:20.935Z,100.00
2023-03-25T19:47:48.259Z,100.00
2023-03-25T19:50:19.126Z,100.00
2023-03-25T19:52:47.546Z,100.00
2023-03-25T19:55:14.861Z,100.00
2023-03-25T19:57:42.975Z,100.00
2023-03-25T20:00:13.882Z,100.00
2023-03-25T20:02:42.205Z,100.00
2023-03-25T20:05:13.213Z,100.00
2023-03-25T20:07:41.643Z,100.00
2023-03-25T20:10:19.637Z,100.00
2023-03-25T20:12:48.209Z,100.00
2023-03-25T20:15:15.041Z,100.00
2023-03-25T20:17:41.628Z,100.00
2023-03-25T20:20:11.141Z,100.00
2023-03-25T20:22:38.200Z,100.00
2023-03-25T20:25:06.276Z,100.00
2023-03-25T20:27:33.435Z,100.00
2023-03-25T20:30:02.695Z,100.00
2023-03-25T20:32:39.811Z,100.00
2023-03-25T20:35:10.114Z,100.00
2023-03-25T20:37:41.408Z,100.00
2023-03-25T20:40:12.003Z,100.00
2023-03-25T20:42:41.165Z,100.00
2023-03-25T20:45:10.960Z,100.00
2023-03-25T20:47:37.994Z,100.00
2023-03-25T20:50:05.404Z,100.00
2023-03-25T20:52:31.986Z,100.00
2023-03-25T20:54:58.891Z,100.00
2023-03-25T20:57:25.402Z,100.00
2023-03-25T20:59:54.497Z,100.00
2023-03-25T21:02:23.802Z,100.00
2023-03-25T21:04:50.957Z,100.00
2023-03-25T21:07:19.415Z,100.00
2023-03-25T21:09:47.316Z,100.00
2023-03-25T21:12:13.977Z,100.00
2023-03-25T21:14:40.789Z,100.00
2023-03-25T21:17:07.264Z,100.00
2023-03-25T21:19:33.866Z,100.00
2023-03-25T21:22:00.623Z,100.00
2023-03-25T21:24:27.097Z,100.00
2023-03-25T21:26:53.603Z,100.00
2023-03-25T21:29:20.960Z,100.00
2023-03-25T21:31:47.775Z,100.00
2023-03-25T21:34:15.800Z,100.00
2023-03-25T21:36:43.106Z,100.00
2023-03-25T21:39:10.044Z,100.00
2023-03-25T21:41:36.641Z,100.00
2023-03-25T21:44:05.117Z,100.00
2023-03-25T21:46:35.835Z,100.00
2023-03-25T21:49:03.783Z,100.00
2023-03-25T21:51:32.436Z,100.00
2023-03-25T21:54:03.533Z,100.00
2023-03-25T21:56:34.758Z,100.00
2023-03-25T21:59:05.599Z,100.00
2023-03-25T22:01:32.657Z,100.00
2023-03-25T22:04:01.168Z,100.00
2023-03-25T22:06:30.868Z,100.00
2023-03-25T22:08:57.350Z,100.00
2023-03-25T22:11:27.492Z,100.00
2023-03-25T22:13:53.969Z,100.00
2023-03-25T22:16:21.195Z,100.00
2023-03-25T22:18:48.061Z,100.00
2023-03-25T22:21:30.160Z,100.00
2023-03-25T22:24:01.726Z,100.00
2023-03-25T22:26:30.088Z,100.00
2023-03-25T22:29:03.422Z,100.00
2023-03-25T22:31:39.526Z,100.00
2023-03-25T22:34:12.116Z,100.00
2023-03-25T22:36:41.577Z,100.00
2023-03-25T22:39:10.383Z,100.00
2023-03-25T22:41:37.787Z,100.00
2023-03-25T22:44:04.924Z,100.00
2023-03-25T22:46:32.171Z,100.00
2023-03-25T22:49:02.990Z,100.00
2023-03-25T22:51:29.410Z,100.00
2023-03-25T22:53:55.951Z,100.00
2023-03-25T22:56:23.640Z,100.00
2023-03-25T22:58:53.015Z,100.00
2023-03-25T23:01:24.971Z,100.00
2023-03-25T23:03:53.528Z,100.00
2023-03-25T23:06:21.087Z,100.00
2023-03-25T23:08:48.023Z,100.00
2023-03-25T23:11:26.664Z,100.00
2023-03-25T23:13:56.187Z,100.00
2023-03-25T23:16:25.284Z,100.00
2023-03-25T23:18:52.451Z,100.00
2023-03-25T23:21:32.830Z,100.00
2023-03-25T23:24:01.420Z,100.00
2023-03-25T23:26:34.387Z,100.00
2023-03-25T23:29:03.469Z,100.00
2023-03-25T23:31:34.120Z,100.00
2023-03-25T23:34:06.521Z,100.00
2023-03-25T23:36:36.284Z,100.00
2023-03-25T23:39:06.362Z,100.00
2023-03-25T23:41:33.214Z,100.00
2023-03-25T23:43:59.728Z,100.00
2023-03-25T23:46:27.175Z,100.00
2023-03-25T23:49:03.332Z,100.00
2023-03-25T23:51:35.135Z,100.00
2023-03-25T23:54:02.339Z,100.00
2023-03-25T23:56:29.964Z,100.00
2023-03-25T23:58:58.397Z,100.00
